sensor_id;sensor_type;location;lat;lon;timestamp;P1;durP1;ratioP1;P2;durP2;ratioP2
21326;SDS011;10822;51.532;6.770;2023-04-15T00:01:23;5.88;;;4.38;;
21326;SDS011;10822;51.532;6.770;2023-04-15T00:03:50;6.47;;;4.57;;
21326;SDS011;10822;51.532;6.770;2023-04-15T00:06:22;6.63;;;4.35;;
21326;SDS011;10822;51.532;6.770;2023-04-15T00:08:48;6.47;;;4.18;;
21326;SDS011;10822;51.532;6.770;2023-04-15T00:11:15;6.43;;;4.13;;
21326;SDS011;10822;51.532;6.770;2023-04-15T00:13:41;7.60;;;4.35;;
21326;SDS011;10822;51.532;6.770;2023-04-15T00:16:08;7.18;;;4.70;;
21326;SDS011;10822;51.532;6.770;2023-04-15T00:18:34;9.18;;;4.40;;
21326;SDS011;10822;51.532;6.770;2023-04-15T00:21:01;8.88;;;4.70;;
21326;SDS011;10822;51.532;6.770;2023-04-15T00:23:27;8.23;;;4.63;;
21326;SDS011;10822;51.532;6.770;2023-04-15T00:25:53;7.72;;;4.95;;
21326;SDS011;10822;51.532;6.770;2023-04-15T00:28:19;6.03;;;4.60;;
21326;SDS011;10822;51.532;6.770;2023-04-15T00:30:45;8.77;;;4.85;;
21326;SDS011;10822;51.532;6.770;2023-04-15T00:33:14;6.70;;;5.00;;
21326;SDS011;10822;51.532;6.770;2023-04-15T00:35:40;8.52;;;5.22;;
21326;SDS011;10822;51.532;6.770;2023-04-15T00:38:06;8.30;;;4.97;;
21326;SDS011;10822;51.532;6.770;2023-04-15T00:40:32;6.97;;;5.07;;
21326;SDS011;10822;51.532;6.770;2023-04-15T00:42:59;6.50;;;4.85;;
21326;SDS011;10822;51.532;6.770;2023-04-15T00:45:25;7.30;;;5.15;;
21326;SDS011;10822;51.532;6.770;2023-04-15T00:47:54;6.90;;;4.70;;
21326;SDS011;10822;51.532;6.770;2023-04-15T00:50:20;6.70;;;5.15;;
21326;SDS011;10822;51.532;6.770;2023-04-15T00:52:47;7.05;;;4.97;;
21326;SDS011;10822;51.532;6.770;2023-04-15T00:55:13;8.18;;;5.18;;
21326;SDS011;10822;51.532;6.770;2023-04-15T00:57:39;9.32;;;5.60;;
21326;SDS011;10822;51.532;6.770;2023-04-15T01:00:05;8.10;;;5.45;;
21326;SDS011;10822;51.532;6.770;2023-04-15T01:02:33;8.00;;;5.80;;
21326;SDS011;10822;51.532;6.770;2023-04-15T01:05:00;7.78;;;5.80;;
21326;SDS011;10822;51.532;6.770;2023-04-15T01:07:26;10.38;;;6.28;;
21326;SDS011;10822;51.532;6.770;2023-04-15T01:09:52;8.82;;;5.75;;
21326;SDS011;10822;51.532;6.770;2023-04-15T01:12:18;9.60;;;6.35;;
21326;SDS011;10822;51.532;6.770;2023-04-15T01:14:45;9.35;;;5.97;;
21326;SDS011;10822;51.532;6.770;2023-04-15T01:17:11;8.02;;;5.95;;
21326;SDS011;10822;51.532;6.770;2023-04-15T01:19:37;8.13;;;5.90;;
21326;SDS011;10822;51.532;6.770;2023-04-15T01:22:03;7.82;;;5.80;;
21326;SDS011;10822;51.532;6.770;2023-04-15T01:24:33;10.07;;;6.53;;
21326;SDS011;10822;51.532;6.770;2023-04-15T01:27:00;9.00;;;6.32;;
21326;SDS011;10822;51.532;6.770;2023-04-15T01:29:26;7.78;;;6.00;;
21326;SDS011;10822;51.532;6.770;2023-04-15T01:31:53;7.97;;;5.82;;
21326;SDS011;10822;51.532;6.770;2023-04-15T01:34:19;7.43;;;5.53;;
21326;SDS011;10822;51.532;6.770;2023-04-15T01:36:46;9.18;;;5.53;;
21326;SDS011;10822;51.532;6.770;2023-04-15T01:39:12;8.43;;;5.88;;
21326;SDS011;10822;51.532;6.770;2023-04-15T01:41:38;7.63;;;5.63;;
21326;SDS011;10822;51.532;6.770;2023-04-15T01:44:06;8.00;;;6.30;;
21326;SDS011;10822;51.532;6.770;2023-04-15T01:46:32;7.78;;;5.63;;
21326;SDS011;10822;51.532;6.770;2023-04-15T01:48:58;7.10;;;5.63;;
21326;SDS011;10822;51.532;6.770;2023-04-15T01:51:24;9.57;;;5.93;;
21326;SDS011;10822;51.532;6.770;2023-04-15T01:53:50;8.85;;;6.05;;
21326;SDS011;10822;51.532;6.770;2023-04-15T01:56:16;6.97;;;5.63;;
21326;SDS011;10822;51.532;6.770;2023-04-15T01:58:42;8.32;;;5.53;;
21326;SDS011;10822;51.532;6.770;2023-04-15T02:01:08;8.93;;;5.70;;
21326;SDS011;10822;51.532;6.770;2023-04-15T02:03:35;9.10;;;5.53;;
21326;SDS011;10822;51.532;6.770;2023-04-15T02:06:01;8.90;;;5.93;;
21326;SDS011;10822;51.532;6.770;2023-04-15T02:08:28;8.85;;;5.70;;
21326;SDS011;10822;51.532;6.770;2023-04-15T02:10:54;8.98;;;6.10;;
21326;SDS011;10822;51.532;6.770;2023-04-15T02:13:20;9.95;;;5.82;;
21326;SDS011;10822;51.532;6.770;2023-04-15T02:15:47;8.27;;;5.72;;
21326;SDS011;10822;51.532;6.770;2023-04-15T02:18:14;7.30;;;5.15;;
21326;SDS011;10822;51.532;6.770;2023-04-15T02:20:40;7.60;;;5.55;;
21326;SDS011;10822;51.532;6.770;2023-04-15T02:23:07;6.90;;;5.32;;
21326;SDS011;10822;51.532;6.770;2023-04-15T02:25:33;8.25;;;5.35;;
21326;SDS011;10822;51.532;6.770;2023-04-15T02:27:59;8.68;;;5.85;;
21326;SDS011;10822;51.532;6.770;2023-04-15T02:30:25;8.65;;;6.38;;
21326;SDS011;10822;51.532;6.770;2023-04-15T02:32:51;9.40;;;6.65;;
21326;SDS011;10822;51.532;6.770;2023-04-15T02:35:17;8.82;;;6.30;;
21326;SDS011;10822;51.532;6.770;2023-04-15T02:37:43;9.77;;;6.05;;
21326;SDS011;10822;51.532;6.770;2023-04-15T02:40:10;9.23;;;6.13;;
21326;SDS011;10822;51.532;6.770;2023-04-15T02:42:37;7.75;;;6.07;;
21326;SDS011;10822;51.532;6.770;2023-04-15T02:45:03;9.52;;;6.28;;
21326;SDS011;10822;51.532;6.770;2023-04-15T02:47:29;6.82;;;5.70;;
21326;SDS011;10822;51.532;6.770;2023-04-15T02:49:55;8.70;;;5.93;;
21326;SDS011;10822;51.532;6.770;2023-04-15T02:52:24;9.93;;;6.30;;
21326;SDS011;10822;51.532;6.770;2023-04-15T02:54:50;9.73;;;6.25;;
21326;SDS011;10822;51.532;6.770;2023-04-15T02:57:17;7.40;;;6.20;;
21326;SDS011;10822;51.532;6.770;2023-04-15T02:59:43;11.05;;;6.53;;
21326;SDS011;10822;51.532;6.770;2023-04-15T03:02:09;10.02;;;6.07;;
21326;SDS011;10822;51.532;6.770;2023-04-15T03:04:35;8.77;;;6.05;;
21326;SDS011;10822;51.532;6.770;2023-04-15T03:07:01;9.00;;;6.03;;
21326;SDS011;10822;51.532;6.770;2023-04-15T03:09:27;8.10;;;5.75;;
21326;SDS011;10822;51.532;6.770;2023-04-15T03:11:52;9.32;;;6.22;;
21326;SDS011;10822;51.532;6.770;2023-04-15T03:14:18;11.25;;;6.60;;
21326;SDS011;10822;51.532;6.770;2023-04-15T03:16:44;8.40;;;5.95;;
21326;SDS011;10822;51.532;6.770;2023-04-15T03:19:10;10.23;;;6.40;;
21326;SDS011;10822;51.532;6.770;2023-04-15T03:21:36;9.93;;;6.07;;
21326;SDS011;10822;51.532;6.770;2023-04-15T03:24:02;8.55;;;6.35;;
21326;SDS011;10822;51.532;6.770;2023-04-15T03:26:29;9.18;;;6.28;;
21326;SDS011;10822;51.532;6.770;2023-04-15T03:28:55;7.82;;;6.00;;
21326;SDS011;10822;51.532;6.770;2023-04-15T03:31:22;8.93;;;6.32;;
21326;SDS011;10822;51.532;6.770;2023-04-15T03:33:48;8.95;;;6.15;;
21326;SDS011;10822;51.532;6.770;2023-04-15T03:36:14;8.07;;;6.68;;
21326;SDS011;10822;51.532;6.770;2023-04-15T03:38:40;8.68;;;5.82;;
21326;SDS011;10822;51.532;6.770;2023-04-15T03:41:06;8.52;;;6.30;;
21326;SDS011;10822;51.532;6.770;2023-04-15T03:43:33;7.65;;;5.72;;
21326;SDS011;10822;51.532;6.770;2023-04-15T03:45:59;8.27;;;6.15;;
21326;SDS011;10822;51.532;6.770;2023-04-15T03:48:25;8.73;;;6.22;;
21326;SDS011;10822;51.532;6.770;2023-04-15T03:50:51;9.20;;;6.95;;
21326;SDS011;10822;51.532;6.770;2023-04-15T03:53:17;8.48;;;6.70;;
21326;SDS011;10822;51.532;6.770;2023-04-15T03:55:43;7.45;;;6.00;;
21326;SDS011;10822;51.532;6.770;2023-04-15T03:58:09;9.82;;;6.80;;
21326;SDS011;10822;51.532;6.770;2023-04-15T04:00:36;8.35;;;6.57;;
21326;SDS011;10822;51.532;6.770;2023-04-15T04:03:02;13.23;;;7.38;;
21326;SDS011;10822;51.532;6.770;2023-04-15T04:05:29;9.27;;;6.85;;
21326;SDS011;10822;51.532;6.770;2023-04-15T04:07:55;12.13;;;7.22;;
21326;SDS011;10822;51.532;6.770;2023-04-15T04:10:21;9.15;;;6.78;;
21326;SDS011;10822;51.532;6.770;2023-04-15T04:12:47;10.18;;;7.13;;
21326;SDS011;10822;51.532;6.770;2023-04-15T04:15:13;9.50;;;6.78;;
21326;SDS011;10822;51.532;6.770;2023-04-15T04:17:39;10.40;;;6.68;;
21326;SDS011;10822;51.532;6.770;2023-04-15T04:20:05;9.63;;;6.78;;
21326;SDS011;10822;51.532;6.770;2023-04-15T04:22:35;8.68;;;6.80;;
21326;SDS011;10822;51.532;6.770;2023-04-15T04:25:01;11.00;;;7.45;;
21326;SDS011;10822;51.532;6.770;2023-04-15T04:27:27;10.05;;;7.22;;
21326;SDS011;10822;51.532;6.770;2023-04-15T04:29:53;11.20;;;6.78;;
21326;SDS011;10822;51.532;6.770;2023-04-15T04:32:19;10.20;;;7.30;;
21326;SDS011;10822;51.532;6.770;2023-04-15T04:34:45;9.02;;;7.05;;
21326;SDS011;10822;51.532;6.770;2023-04-15T04:37:12;10.50;;;7.00;;
21326;SDS011;10822;51.532;6.770;2023-04-15T04:39:38;11.68;;;8.05;;
21326;SDS011;10822;51.532;6.770;2023-04-15T04:42:04;10.82;;;7.65;;
21326;SDS011;10822;51.532;6.770;2023-04-15T04:44:30;10.20;;;7.28;;
21326;SDS011;10822;51.532;6.770;2023-04-15T04:46:56;8.88;;;6.82;;
21326;SDS011;10822;51.532;6.770;2023-04-15T04:49:22;10.23;;;7.40;;
21326;SDS011;10822;51.532;6.770;2023-04-15T04:51:48;10.40;;;7.72;;
21326;SDS011;10822;51.532;6.770;2023-04-15T04:54:14;10.32;;;6.97;;
21326;SDS011;10822;51.532;6.770;2023-04-15T04:56:40;12.38;;;7.85;;
21326;SDS011;10822;51.532;6.770;2023-04-15T04:59:06;11.85;;;8.48;;
21326;SDS011;10822;51.532;6.770;2023-04-15T05:01:32;13.27;;;8.90;;
21326;SDS011;10822;51.532;6.770;2023-04-15T05:03:58;11.90;;;8.38;;
21326;SDS011;10822;51.532;6.770;2023-04-15T05:06:24;12.05;;;8.52;;
21326;SDS011;10822;51.532;6.770;2023-04-15T05:08:51;11.05;;;8.20;;
21326;SDS011;10822;51.532;6.770;2023-04-15T05:11:17;10.73;;;7.43;;
21326;SDS011;10822;51.532;6.770;2023-04-15T05:13:43;11.93;;;8.23;;
21326;SDS011;10822;51.532;6.770;2023-04-15T05:16:09;10.55;;;7.53;;
21326;SDS011;10822;51.532;6.770;2023-04-15T05:18:36;12.80;;;8.80;;
21326;SDS011;10822;51.532;6.770;2023-04-15T05:21:02;13.32;;;8.55;;
21326;SDS011;10822;51.532;6.770;2023-04-15T05:23:28;13.10;;;8.60;;
21326;SDS011;10822;51.532;6.770;2023-04-15T05:25:54;15.02;;;8.63;;
21326;SDS011;10822;51.532;6.770;2023-04-15T05:28:20;11.98;;;8.35;;
21326;SDS011;10822;51.532;6.770;2023-04-15T05:30:46;13.00;;;8.63;;
21326;SDS011;10822;51.532;6.770;2023-04-15T05:33:12;12.75;;;8.23;;
21326;SDS011;10822;51.532;6.770;2023-04-15T05:35:38;13.07;;;9.00;;
21326;SDS011;10822;51.532;6.770;2023-04-15T05:38:03;12.30;;;8.55;;
21326;SDS011;10822;51.532;6.770;2023-04-15T05:40:30;11.98;;;8.65;;
21326;SDS011;10822;51.532;6.770;2023-04-15T05:42:56;12.25;;;8.60;;
21326;SDS011;10822;51.532;6.770;2023-04-15T05:45:22;13.38;;;9.48;;
21326;SDS011;10822;51.532;6.770;2023-04-15T05:47:48;12.50;;;8.70;;
21326;SDS011;10822;51.532;6.770;2023-04-15T05:50:14;13.45;;;9.27;;
21326;SDS011;10822;51.532;6.770;2023-04-15T05:52:41;12.73;;;9.20;;
21326;SDS011;10822;51.532;6.770;2023-04-15T05:55:07;13.13;;;9.48;;
21326;SDS011;10822;51.532;6.770;2023-04-15T05:57:33;12.82;;;9.07;;
21326;SDS011;10822;51.532;6.770;2023-04-15T05:59:58;12.40;;;9.38;;
21326;SDS011;10822;51.532;6.770;2023-04-15T06:02:24;14.65;;;9.95;;
21326;SDS011;10822;51.532;6.770;2023-04-15T06:04:51;12.00;;;9.88;;
21326;SDS011;10822;51.532;6.770;2023-04-15T06:07:17;14.10;;;9.35;;
21326;SDS011;10822;51.532;6.770;2023-04-15T06:09:43;12.55;;;9.25;;
21326;SDS011;10822;51.532;6.770;2023-04-15T06:12:09;13.73;;;9.35;;
21326;SDS011;10822;51.532;6.770;2023-04-15T06:14:37;12.88;;;8.88;;
21326;SDS011;10822;51.532;6.770;2023-04-15T06:17:04;12.02;;;8.68;;
21326;SDS011;10822;51.532;6.770;2023-04-15T06:19:30;11.95;;;8.35;;
21326;SDS011;10822;51.532;6.770;2023-04-15T06:21:57;12.40;;;9.05;;
21326;SDS011;10822;51.532;6.770;2023-04-15T06:24:23;12.30;;;8.65;;
21326;SDS011;10822;51.532;6.770;2023-04-15T06:26:49;12.35;;;7.80;;
21326;SDS011;10822;51.532;6.770;2023-04-15T06:29:15;10.48;;;7.57;;
21326;SDS011;10822;51.532;6.770;2023-04-15T06:31:41;10.77;;;8.30;;
21326;SDS011;10822;51.532;6.770;2023-04-15T06:34:07;9.88;;;7.95;;
21326;SDS011;10822;51.532;6.770;2023-04-15T06:36:33;12.15;;;8.27;;
21326;SDS011;10822;51.532;6.770;2023-04-15T06:38:59;9.77;;;7.60;;
21326;SDS011;10822;51.532;6.770;2023-04-15T06:41:25;9.90;;;7.68;;
21326;SDS011;10822;51.532;6.770;2023-04-15T06:43:51;9.95;;;7.85;;
21326;SDS011;10822;51.532;6.770;2023-04-15T06:46:17;10.68;;;7.60;;
21326;SDS011;10822;51.532;6.770;2023-04-15T06:48:43;8.75;;;6.95;;
21326;SDS011;10822;51.532;6.770;2023-04-15T06:51:09;10.25;;;7.47;;
21326;SDS011;10822;51.532;6.770;2023-04-15T06:53:35;10.80;;;7.40;;
21326;SDS011;10822;51.532;6.770;2023-04-15T06:56:05;10.73;;;7.50;;
21326;SDS011;10822;51.532;6.770;2023-04-15T06:58:31;8.30;;;6.78;;
21326;SDS011;10822;51.532;6.770;2023-04-15T07:00:57;9.30;;;6.50;;
21326;SDS011;10822;51.532;6.770;2023-04-15T07:03:23;8.38;;;6.28;;
21326;SDS011;10822;51.532;6.770;2023-04-15T07:05:50;7.70;;;6.30;;
21326;SDS011;10822;51.532;6.770;2023-04-15T07:08:16;6.70;;;6.00;;
21326;SDS011;10822;51.532;6.770;2023-04-15T07:10:42;7.22;;;5.43;;
21326;SDS011;10822;51.532;6.770;2023-04-15T07:13:08;8.30;;;5.60;;
21326;SDS011;10822;51.532;6.770;2023-04-15T07:15:35;7.57;;;5.50;;
21326;SDS011;10822;51.532;6.770;2023-04-15T07:18:01;7.72;;;5.72;;
21326;SDS011;10822;51.532;6.770;2023-04-15T07:20:27;5.97;;;5.15;;
21326;SDS011;10822;51.532;6.770;2023-04-15T07:22:53;6.78;;;5.00;;
21326;SDS011;10822;51.532;6.770;2023-04-15T07:25:19;5.85;;;4.90;;
21326;SDS011;10822;51.532;6.770;2023-04-15T07:27:45;6.63;;;4.40;;
21326;SDS011;10822;51.532;6.770;2023-04-15T07:30:11;6.00;;;4.18;;
21326;SDS011;10822;51.532;6.770;2023-04-15T07:32:37;5.30;;;4.07;;
21326;SDS011;10822;51.532;6.770;2023-04-15T07:35:04;5.60;;;4.78;;
21326;SDS011;10822;51.532;6.770;2023-04-15T07:37:30;5.88;;;4.60;;
21326;SDS011;10822;51.532;6.770;2023-04-15T07:39:56;5.78;;;4.35;;
21326;SDS011;10822;51.532;6.770;2023-04-15T07:42:22;4.80;;;4.05;;
21326;SDS011;10822;51.532;6.770;2023-04-15T07:44:48;5.25;;;4.43;;
21326;SDS011;10822;51.532;6.770;2023-04-15T07:47:14;4.95;;;4.05;;
21326;SDS011;10822;51.532;6.770;2023-04-15T07:49:40;4.97;;;4.07;;
21326;SDS011;10822;51.532;6.770;2023-04-15T07:52:07;5.32;;;3.80;;
21326;SDS011;10822;51.532;6.770;2023-04-15T07:54:33;4.82;;;3.95;;
21326;SDS011;10822;51.532;6.770;2023-04-15T07:56:59;5.60;;;4.15;;
21326;SDS011;10822;51.532;6.770;2023-04-15T07:59:25;5.35;;;4.03;;
21326;SDS011;10822;51.532;6.770;2023-04-15T08:01:54;4.78;;;3.90;;
21326;SDS011;10822;51.532;6.770;2023-04-15T08:04:20;6.20;;;4.22;;
21326;SDS011;10822;51.532;6.770;2023-04-15T08:06:46;5.25;;;4.28;;
21326;SDS011;10822;51.532;6.770;2023-04-15T08:09:14;5.53;;;3.95;;
21326;SDS011;10822;51.532;6.770;2023-04-15T08:11:40;5.32;;;3.70;;
21326;SDS011;10822;51.532;6.770;2023-04-15T08:14:06;5.50;;;3.90;;
21326;SDS011;10822;51.532;6.770;2023-04-15T08:16:32;5.68;;;3.80;;
21326;SDS011;10822;51.532;6.770;2023-04-15T08:18:58;5.10;;;3.88;;
21326;SDS011;10822;51.532;6.770;2023-04-15T08:21:24;6.70;;;3.45;;
21326;SDS011;10822;51.532;6.770;2023-04-15T08:23:51;6.07;;;3.70;;
21326;SDS011;10822;51.532;6.770;2023-04-15T08:26:18;4.22;;;2.95;;
21326;SDS011;10822;51.532;6.770;2023-04-15T08:28:45;3.45;;;2.70;;
21326;SDS011;10822;51.532;6.770;2023-04-15T08:31:13;3.70;;;2.80;;
21326;SDS011;10822;51.532;6.770;2023-04-15T08:33:39;3.80;;;2.78;;
21326;SDS011;10822;51.532;6.770;2023-04-15T08:36:05;3.08;;;2.60;;
21326;SDS011;10822;51.532;6.770;2023-04-15T08:38:31;4.60;;;2.72;;
21326;SDS011;10822;51.532;6.770;2023-04-15T08:40:59;4.07;;;3.13;;
21326;SDS011;10822;51.532;6.770;2023-04-15T08:43:28;3.40;;;2.60;;
21326;SDS011;10822;51.532;6.770;2023-04-15T08:45:58;4.25;;;2.90;;
21326;SDS011;10822;51.532;6.770;2023-04-15T08:48:27;3.90;;;2.95;;
21326;SDS011;10822;51.532;6.770;2023-04-15T08:50:53;3.53;;;2.90;;
21326;SDS011;10822;51.532;6.770;2023-04-15T08:53:20;5.88;;;3.20;;
21326;SDS011;10822;51.532;6.770;2023-04-15T08:55:46;3.53;;;2.90;;
21326;SDS011;10822;51.532;6.770;2023-04-15T08:58:16;3.92;;;2.92;;
21326;SDS011;10822;51.532;6.770;2023-04-15T09:00:42;3.75;;;2.60;;
21326;SDS011;10822;51.532;6.770;2023-04-15T09:03:08;3.08;;;2.47;;
21326;SDS011;10822;51.532;6.770;2023-04-15T09:05:35;5.20;;;2.97;;
21326;SDS011;10822;51.532;6.770;2023-04-15T09:08:02;3.05;;;2.53;;
21326;SDS011;10822;51.532;6.770;2023-04-15T09:10:29;3.92;;;2.80;;
21326;SDS011;10822;51.532;6.770;2023-04-15T09:12:55;3.05;;;2.70;;
21326;SDS011;10822;51.532;6.770;2023-04-15T09:15:23;3.45;;;2.80;;
21326;SDS011;10822;51.532;6.770;2023-04-15T09:17:51;4.38;;;2.80;;
21326;SDS011;10822;51.532;6.770;2023-04-15T09:20:17;3.47;;;2.95;;
21326;SDS011;10822;51.532;6.770;2023-04-15T09:22:44;4.53;;;3.40;;
21326;SDS011;10822;51.532;6.770;2023-04-15T09:27:49;3.50;;;3.10;;
21326;SDS011;10822;51.532;6.770;2023-04-15T09:30:16;4.10;;;3.30;;
21326;SDS011;10822;51.532;6.770;2023-04-15T09:32:52;3.63;;;3.33;;
21326;SDS011;10822;51.532;6.770;2023-04-15T09:35:19;3.42;;;3.03;;
21326;SDS011;10822;51.532;6.770;2023-04-15T09:37:46;4.30;;;3.42;;
21326;SDS011;10822;51.532;6.770;2023-04-15T09:40:12;5.88;;;3.35;;
21326;SDS011;10822;51.532;6.770;2023-04-15T09:42:54;3.88;;;3.22;;
21326;SDS011;10822;51.532;6.770;2023-04-15T09:45:20;3.72;;;3.20;;
21326;SDS011;10822;51.532;6.770;2023-04-15T09:47:46;3.80;;;3.28;;
21326;SDS011;10822;51.532;6.770;2023-04-15T09:50:12;4.70;;;3.35;;
21326;SDS011;10822;51.532;6.770;2023-04-15T09:52:42;4.07;;;3.40;;
21326;SDS011;10822;51.532;6.770;2023-04-15T09:55:09;4.85;;;2.95;;
21326;SDS011;10822;51.532;6.770;2023-04-15T09:57:35;3.80;;;3.35;;
21326;SDS011;10822;51.532;6.770;2023-04-15T10:00:05;3.85;;;3.28;;
21326;SDS011;10822;51.532;6.770;2023-04-15T10:02:32;4.63;;;3.38;;
21326;SDS011;10822;51.532;6.770;2023-04-15T10:04:58;3.63;;;3.20;;
21326;SDS011;10822;51.532;6.770;2023-04-15T10:07:24;3.65;;;3.00;;
21326;SDS011;10822;51.532;6.770;2023-04-15T10:09:50;4.90;;;3.42;;
21326;SDS011;10822;51.532;6.770;2023-04-15T10:12:16;4.93;;;3.70;;
21326;SDS011;10822;51.532;6.770;2023-04-15T10:14:43;7.43;;;3.50;;
21326;SDS011;10822;51.532;6.770;2023-04-15T10:17:10;4.32;;;3.65;;
21326;SDS011;10822;51.532;6.770;2023-04-15T10:19:36;4.65;;;4.00;;
21326;SDS011;10822;51.532;6.770;2023-04-15T10:22:02;4.63;;;3.47;;
21326;SDS011;10822;51.532;6.770;2023-04-15T10:24:31;5.45;;;3.70;;
21326;SDS011;10822;51.532;6.770;2023-04-15T10:26:58;3.80;;;3.10;;
21326;SDS011;10822;51.532;6.770;2023-04-15T10:29:24;4.38;;;3.70;;
21326;SDS011;10822;51.532;6.770;2023-04-15T10:31:56;5.72;;;4.10;;
21326;SDS011;10822;51.532;6.770;2023-04-15T10:34:23;4.72;;;3.92;;
21326;SDS011;10822;51.532;6.770;2023-04-15T10:36:50;4.57;;;4.00;;
21326;SDS011;10822;51.532;6.770;2023-04-15T10:42:08;3.97;;;3.20;;
21326;SDS011;10822;51.532;6.770;2023-04-15T10:44:37;3.53;;;3.13;;
21326;SDS011;10822;51.532;6.770;2023-04-15T10:47:05;4.35;;;3.40;;
21326;SDS011;10822;51.532;6.770;2023-04-15T10:49:32;6.05;;;3.40;;
21326;SDS011;10822;51.532;6.770;2023-04-15T10:51:58;3.80;;;3.40;;
21326;SDS011;10822;51.532;6.770;2023-04-15T10:56:51;3.80;;;3.03;;
21326;SDS011;10822;51.532;6.770;2023-04-15T10:59:17;3.72;;;3.00;;
21326;SDS011;10822;51.532;6.770;2023-04-15T11:01:50;4.50;;;3.00;;
21326;SDS011;10822;51.532;6.770;2023-04-15T11:07:06;3.58;;;3.17;;
21326;SDS011;10822;51.532;6.770;2023-04-15T11:09:32;4.28;;;3.08;;
21326;SDS011;10822;51.532;6.770;2023-04-15T11:12:05;4.32;;;3.30;;
21326;SDS011;10822;51.532;6.770;2023-04-15T11:14:41;3.75;;;3.22;;
21326;SDS011;10822;51.532;6.770;2023-04-15T11:17:07;4.15;;;3.00;;
21326;SDS011;10822;51.532;6.770;2023-04-15T11:19:37;5.20;;;3.20;;
21326;SDS011;10822;51.532;6.770;2023-04-15T11:22:09;3.50;;;2.92;;
21326;SDS011;10822;51.532;6.770;2023-04-15T11:24:36;5.03;;;3.40;;
21326;SDS011;10822;51.532;6.770;2023-04-15T11:27:02;4.22;;;3.30;;
21326;SDS011;10822;51.532;6.770;2023-04-15T11:29:28;4.10;;;3.10;;
21326;SDS011;10822;51.532;6.770;2023-04-15T11:32:05;4.35;;;3.00;;
21326;SDS011;10822;51.532;6.770;2023-04-15T11:34:33;4.40;;;2.85;;
21326;SDS011;10822;51.532;6.770;2023-04-15T11:37:02;4.07;;;2.97;;
21326;SDS011;10822;51.532;6.770;2023-04-15T11:39:29;5.65;;;2.95;;
21326;SDS011;10822;51.532;6.770;2023-04-15T11:41:55;3.45;;;2.50;;
21326;SDS011;10822;51.532;6.770;2023-04-15T11:44:21;3.45;;;2.60;;
21326;SDS011;10822;51.532;6.770;2023-04-15T11:46:47;3.20;;;2.55;;
21326;SDS011;10822;51.532;6.770;2023-04-15T11:49:28;3.38;;;2.58;;
21326;SDS011;10822;51.532;6.770;2023-04-15T11:51:55;4.60;;;2.65;;
21326;SDS011;10822;51.532;6.770;2023-04-15T11:54:21;3.83;;;2.60;;
21326;SDS011;10822;51.532;6.770;2023-04-15T11:56:50;3.75;;;2.78;;
21326;SDS011;10822;51.532;6.770;2023-04-15T11:59:18;3.63;;;2.58;;
21326;SDS011;10822;51.532;6.770;2023-04-15T12:01:44;2.92;;;2.53;;
21326;SDS011;10822;51.532;6.770;2023-04-15T12:06:38;2.95;;;2.25;;
21326;SDS011;10822;51.532;6.770;2023-04-15T12:11:35;2.47;;;2.15;;
21326;SDS011;10822;51.532;6.770;2023-04-15T12:16:30;2.70;;;2.20;;
21326;SDS011;10822;51.532;6.770;2023-04-15T12:18:57;2.67;;;2.33;;
21326;SDS011;10822;51.532;6.770;2023-04-15T12:21:27;3.38;;;2.50;;
21326;SDS011;10822;51.532;6.770;2023-04-15T12:23:54;3.30;;;2.50;;
21326;SDS011;10822;51.532;6.770;2023-04-15T12:26:27;5.78;;;2.45;;
21326;SDS011;10822;51.532;6.770;2023-04-15T12:28:54;4.47;;;3.10;;
21326;SDS011;10822;51.532;6.770;2023-04-15T12:31:21;2.88;;;2.28;;
21326;SDS011;10822;51.532;6.770;2023-04-15T12:33:47;3.28;;;2.35;;
21326;SDS011;10822;51.532;6.770;2023-04-15T12:36:14;2.40;;;1.95;;
21326;SDS011;10822;51.532;6.770;2023-04-15T12:38:40;2.75;;;1.90;;
21326;SDS011;10822;51.532;6.770;2023-04-15T12:41:06;2.30;;;1.80;;
21326;SDS011;10822;51.532;6.770;2023-04-15T12:43:32;3.30;;;2.05;;
21326;SDS011;10822;51.532;6.770;2023-04-15T12:45:58;3.75;;;2.20;;
21326;SDS011;10822;51.532;6.770;2023-04-15T12:48:24;2.58;;;2.30;;
21326;SDS011;10822;51.532;6.770;2023-04-15T12:50:50;2.60;;;2.15;;
21326;SDS011;10822;51.532;6.770;2023-04-15T12:53:16;3.33;;;2.60;;
21326;SDS011;10822;51.532;6.770;2023-04-15T12:55:42;4.05;;;2.75;;
21326;SDS011;10822;51.532;6.770;2023-04-15T12:58:08;4.03;;;2.75;;
21326;SDS011;10822;51.532;6.770;2023-04-15T13:00:35;3.65;;;2.47;;
21326;SDS011;10822;51.532;6.770;2023-04-15T13:03:02;7.03;;;2.40;;
21326;SDS011;10822;51.532;6.770;2023-04-15T13:05:28;3.25;;;2.13;;
21326;SDS011;10822;51.532;6.770;2023-04-15T13:07:54;2.42;;;2.22;;
21326;SDS011;10822;51.532;6.770;2023-04-15T13:10:20;4.57;;;2.60;;
21326;SDS011;10822;51.532;6.770;2023-04-15T13:12:50;3.00;;;1.85;;
21326;SDS011;10822;51.532;6.770;2023-04-15T13:15:18;3.45;;;2.00;;
21326;SDS011;10822;51.532;6.770;2023-04-15T13:17:46;2.50;;;1.92;;
21326;SDS011;10822;51.532;6.770;2023-04-15T13:20:12;3.33;;;1.90;;
21326;SDS011;10822;51.532;6.770;2023-04-15T13:22:38;2.90;;;2.08;;
21326;SDS011;10822;51.532;6.770;2023-04-15T13:25:04;3.58;;;1.92;;
21326;SDS011;10822;51.532;6.770;2023-04-15T13:27:31;3.53;;;2.40;;
21326;SDS011;10822;51.532;6.770;2023-04-15T13:29:57;2.15;;;1.80;;
21326;SDS011;10822;51.532;6.770;2023-04-15T13:32:23;2.83;;;2.10;;
21326;SDS011;10822;51.532;6.770;2023-04-15T13:34:49;3.65;;;2.00;;
21326;SDS011;10822;51.532;6.770;2023-04-15T13:37:15;4.22;;;2.10;;
21326;SDS011;10822;51.532;6.770;2023-04-15T13:39:41;2.67;;;2.10;;
21326;SDS011;10822;51.532;6.770;2023-04-15T13:42:07;3.55;;;1.85;;
21326;SDS011;10822;51.532;6.770;2023-04-15T13:44:33;2.78;;;2.03;;
21326;SDS011;10822;51.532;6.770;2023-04-15T13:46:59;3.30;;;2.03;;
21326;SDS011;10822;51.532;6.770;2023-04-15T13:49:25;4.07;;;2.28;;
21326;SDS011;10822;51.532;6.770;2023-04-15T13:51:51;4.63;;;2.33;;
21326;SDS011;10822;51.532;6.770;2023-04-15T13:54:17;2.47;;;1.95;;
21326;SDS011;10822;51.532;6.770;2023-04-15T13:56:43;2.95;;;2.15;;
21326;SDS011;10822;51.532;6.770;2023-04-15T13:59:09;2.47;;;2.10;;
21326;SDS011;10822;51.532;6.770;2023-04-15T14:01:35;2.17;;;1.85;;
21326;SDS011;10822;51.532;6.770;2023-04-15T14:04:01;3.40;;;2.17;;
21326;SDS011;10822;51.532;6.770;2023-04-15T14:06:27;2.97;;;2.00;;
21326;SDS011;10822;51.532;6.770;2023-04-15T14:08:53;2.70;;;1.70;;
21326;SDS011;10822;51.532;6.770;2023-04-15T14:11:19;1.90;;;1.58;;
21326;SDS011;10822;51.532;6.770;2023-04-15T14:13:45;1.73;;;1.63;;
21326;SDS011;10822;51.532;6.770;2023-04-15T14:16:11;1.73;;;1.50;;
21326;SDS011;10822;51.532;6.770;2023-04-15T14:18:37;1.90;;;1.40;;
21326;SDS011;10822;51.532;6.770;2023-04-15T14:21:04;2.28;;;1.60;;
21326;SDS011;10822;51.532;6.770;2023-04-15T14:23:31;1.25;;;1.10;;
21326;SDS011;10822;51.532;6.770;2023-04-15T14:25:56;1.65;;;1.40;;
21326;SDS011;10822;51.532;6.770;2023-04-15T14:28:23;1.98;;;1.70;;
21326;SDS011;10822;51.532;6.770;2023-04-15T14:30:49;2.10;;;1.63;;
21326;SDS011;10822;51.532;6.770;2023-04-15T14:33:15;1.67;;;1.38;;
21326;SDS011;10822;51.532;6.770;2023-04-15T14:35:41;1.92;;;1.45;;
21326;SDS011;10822;51.532;6.770;2023-04-15T14:38:07;2.20;;;1.60;;
21326;SDS011;10822;51.532;6.770;2023-04-15T14:40:34;1.40;;;1.30;;
21326;SDS011;10822;51.532;6.770;2023-04-15T14:43:00;2.10;;;1.60;;
21326;SDS011;10822;51.532;6.770;2023-04-15T14:45:26;3.17;;;1.70;;
21326;SDS011;10822;51.532;6.770;2023-04-15T14:47:52;1.85;;;1.60;;
21326;SDS011;10822;51.532;6.770;2023-04-15T14:50:18;2.33;;;1.58;;
21326;SDS011;10822;51.532;6.770;2023-04-15T14:52:44;2.28;;;1.77;;
21326;SDS011;10822;51.532;6.770;2023-04-15T14:55:11;2.55;;;1.75;;
21326;SDS011;10822;51.532;6.770;2023-04-15T14:57:37;2.13;;;1.73;;
21326;SDS011;10822;51.532;6.770;2023-04-15T15:00:03;2.30;;;1.52;;